CYIV

Island Lake Airport

Island Lake, Manitoba, Canada
METAR CYIV 182100Z 27005KT 4SM FU OVC020 23/16 A2969 RMK FU8 SLP059 DENSITY ALT 2200FT
Observed Flight Rules
Aug-18 @ 21:00 UTC (54 minutes ago) Marginal Visual Flight Rules
Wind Visibility Clouds Conditions
270° at 5 knots 4 miles
  • Overcast at 2,000' AGL
  • Smoke
Temperatures Readings
Current 23°C / 73°F
Dewpoint 16°C / 61°F
Humidity 65%
Altimeter 29.69" Hg
Pressure 1005.9 hPa
Elevation 237
METAR CYIV 182100Z 27005KT 4SM FU OVC020 23/16 A2969 RMK FU8 SLP059 DENSITY ALT 2200FT
Observed Flight Rules
Aug-18 @ 21:00 UTC
(54 minutes ago)
MVFR
Wind Visibility
270° at 5 knots 4 miles
Clouds
  • Overcast at 2,000' AGL
Conditions
  • Smoke
Temperature Dewpoint
23°C / 73°F 16°C / 61°F
Humidity Altimeter Pressure
65% 29.69" Hg 1005.9 hPa